• Join FlightAware (Why Join?)
  • Login
  • US Flag 
09:08AM EST


 

Airport Tracker/Info


-or-


 

Live Flight TrackerFlight Track Log ✈ UAL4401 ✈ 21-Apr-2013 ✈ KMSY - KIAH

Flight Track Log - Related Links

Times and Time Zones

All times are in EDT time to prevent confusion due to time zone crossing. See the UAL4401 flight status page for this flight to view local times or setup timezone preferences in your user account.

Time Position Orientation Groundspeed Altitude Reporting Facility
EDT Latitude Longitude Course Direction KTS MPH feet Rate Location/Type
06:38PM 29.9742 -90.2564 257° West 165 190 600  Level Houston Center
06:38PM 29.9408 -90.2672 196° South 174 200 1,900 1,620 Climbing Houston Center
06:39PM 29.9211 -90.2764 202° Southwest 205 236 2,700 1,860 Climbing Houston Center
06:40PM 29.9069 -90.3697 260° West 259 298 4,900 2,460 Climbing Houston Center
06:41PM 29.8585 -90.5690 244° Southwest  Level FlightAware Approximate
06:41PM 29.9067 -90.4550 270° West 266 306 7,800  Level Houston Center
06:42PM 29.8244 -90.6487 244° Southwest  Level FlightAware Approximate
06:42PM 29.9089 -90.5414 272° West 268 308 9,900  Level Houston Center
06:43PM 29.8130 -90.7350 257° West  Level FlightAware Approximate
06:43PM 29.9139 -90.6403 273° West 286 329 10,700  Level Houston Center
06:44PM 29.9153 -90.7506 271° West 326 375 11,600 1,200 Climbing Houston Center
06:45PM 29.9147 -90.8647 270° West 350 403 13,200 1,500 Climbing Houston Center
06:46PM 29.8831 -90.9939 254° West 349 402 14,800 1,200 Climbing Houston Center
06:47PM 29.8558 -91.1011 254° West 350 403 15,800 900 Climbing Houston Center
06:48PM 29.8283 -91.2094 254° West 351 404 16,700 780 Climbing Houston Center
06:49PM 29.8003 -91.3208 254° West 360 414 17,500 660 Climbing Houston Center
06:50PM 29.7692 -91.4317 252° West 363 418 18,100 660 Climbing Houston Center
06:51PM 29.7397 -91.5436 253° West 367 422 18,900 840 Climbing Houston Center
06:52PM 29.7019 -91.6797 252° West 371 427 19,900 900 Climbing Houston Center
06:53PM 29.6700 -91.7989 253° West 373 429 20,800 840 Climbing Houston Center
06:54PM 29.6433 -91.9119 255° West 370 426 21,700 900 Climbing Houston Center
06:55PM 29.6153 -92.0244 254° West 366 421 22,700 960 Climbing Houston Center
06:56PM 29.5867 -92.1367 254° West 367 422 23,700 960 Climbing Houston Center
06:58PM 29.5575 -92.2458 253° West 361 415 24,700 960 Climbing Houston Center
06:59PM 29.5286 -92.3572 253° West 362 417 25,700 1,200 Climbing Houston Center
07:00PM 29.4967 -92.4853 254° West 354 407 27,200 960 Climbing Houston Center
07:01PM 29.4708 -92.5911 254° West 348 400 27,700 660 Climbing Houston Center
07:02PM 29.4456 -92.6975 255° West 346 398 28,600 780 Climbing Houston Center
07:03PM 29.4192 -92.8036 254° West 345 397 29,400 600 Climbing Houston Center
07:04PM 29.3933 -92.9122 255° West 351 404 29,900 240 Climbing Houston Center
07:05PM 29.3656 -93.0236 254° West 361 415 29,900  Level Houston Center
07:06PM 29.3794 -93.1689 276° West 378 435 30,000 -300 Climbing Houston Center
07:07PM 29.3961 -93.2914 279° West 387 445 29,400 -1,020 Descending Houston Center
07:08PM 29.4131 -93.4167 279° West 393 452 27,900 -1,800 Descending Houston Center
07:09PM 29.4286 -93.5406 278° West 393 452 25,800 -2,100 Descending Houston Center
07:10PM 29.4461 -93.6658 279° West 396 456 23,600 -2,160 Descending Houston Center
07:11PM 29.4611 -93.7875 278° West 389 448 21,400 -2,100 Descending Houston Center
07:12PM 29.4769 -93.9058 279° West 380 437 19,300 -2,040 Descending Houston Center
07:13PM 29.4931 -94.0236 279° West 375 432 17,300 -2,040 Descending Houston Center
07:14PM 29.5094 -94.1606 278° West 365 420 15,200 -2,040 Descending Houston Center
07:15PM 29.5206 -94.2508 278° West 342 394 13,600 -1,260 Descending Houston Center
07:16PM 29.5400 -94.3611 281° West 353 406 13,000 -600 Descending Houston Center
07:16PM 29.5464 -94.3750 298° West 337 388 12,900 -360 Descending Houston Center
07:17PM 29.5808 -94.4544 297° West 357 411 12,700 -540 Descending Houston Center
07:17PM 29.5908 -94.4781 296° West 358 412 12,400 -1,020 Descending Houston Center
07:18PM 29.6275 -94.5664 296° West 356 410 11,600 -1,020 Descending Houston Center
07:18PM 29.6347 -94.5797 302° West 358 412 11,400 -1,080 Descending Houston Center
07:19PM 29.6683 -94.6597 296° West 358 412 10,600 -1,020 Descending Houston Center
07:19PM 29.6778 -94.6822 296° West 357 411 10,400 -720 Descending Houston Center
07:20PM 29.7117 -94.7625 296° West 357 411 9,900 -540 Descending Houston Center
07:20PM 29.7297 -94.8031 297° West 356 410 9,900 -540 Level Houston Center
07:21PM 29.7550 -94.8631 296° West 280 322 9,300 -1,080 Descending Houston Center
07:21PM 29.7633 -94.8833 295° West 298 343 8,800 -1,740 Descending Houston Center
07:22PM 29.7850 -94.9364 295° West 262 302 7,700 -1,740 Descending Houston Center
07:22PM 29.7958 -94.9608 297° West 278 320 7,000 -1,560 Descending Houston Center
07:23PM 29.8206 -95.0233 295° West 263 303 6,000 -1,020 Descending Houston Center
07:23PM 29.8272 -95.0353 303° West 266 306 6,000  Level Houston Center
07:24PM 29.8553 -95.1011 296° West 273 314 6,000  Level Houston Center
07:24PM 29.8603 -95.1125 297° West 270 311 6,000  Level Houston Center
07:25PM 29.8878 -95.1789 296° West 272 313 6,000 -120 Level Houston Center
07:25PM 29.8986 -95.2064 294° West 272 313 5,900  Descending Houston Center
07:26PM 29.8989 -95.2547 270° West 256 295 6,000 60 Climbing Houston Center
07:26PM 29.9006 -95.2881 273° West 257 296 6,000  Level Houston Center
07:27PM 29.9003 -95.3389 270° West 260 299 6,000  Level Houston Center
07:28PM 29.9000 -95.3708 269° West 261 300 6,000 -120 Level Houston Center
07:28PM 29.8997 -95.4233 270° West 259 298 5,900 -900 Descending Houston Center
07:29PM 29.9017 -95.4514 275° West 254 292 5,100 -2,280 Descending Houston Center
07:29PM 29.9008 -95.5053 269° West 257 296 3,600 -2,040 Descending Houston Center
07:30PM 29.9189 -95.5433 299° West 270 311 3,000 -600 Descending Houston Center
07:30PM 29.9522 -95.5400 North 255 293 3,000 -300 Level Houston Center
07:31PM 29.9706 -95.5075 57° Northeast 255 293 2,700 -1,020 Descending Houston Center
07:31PM 29.9839 -95.4711 67° East 227 261 2,000 -1,080 Descending Houston Center
07:32PM 29.9947 -95.4414 67° East 237 273 1,600 -900 Descending Houston Center
07:32PM 29.9917 -95.4172 98° East 139 160 1,100 -1,080 Descending Houston Center